Tufão HALONG 2002: trajetória, intensidade e histórico
19/07/2002, 18:00:00
5/07/2002, 12:00:00 – 19/07/2002, 18:00:00
Trajetória histórica
Acompanhe a evolução e o deslocamento de Tufão HALONG em 2002, com a trajetória completa registrada, ventos máximos sustentados de 135 nós, pressão central mínima e cronologia detalhada.
| Data | Hora | Tipo | Ventokm/h | PressãohPa |
|---|---|---|---|---|
| 19/07 | 18:00 | EXCiclone extratropical | -- | 994 |
| 19/07 | 15:00 | EXCiclone extratropical | -- | 994 |
| 19/07 | 12:00 | EXCiclone extratropical | -- | 994 |
| 19/07 | 09:00 | EXCiclone extratropical | -- | 993 |
| 19/07 | 06:00 | EXCiclone extratropical | -- | 992 |
| 19/07 | 03:00 | EXCiclone extratropical | -- | 992 |
| 19/07 | 00:00 | EXCiclone extratropical | -- | 992 |
| 18/07 | 21:00 | EXCiclone extratropical | -- | 992 |
| 18/07 | 18:00 | EXCiclone extratropical | -- | 992 |
| 18/07 | 15:00 | EXCiclone extratropical | -- | 991 |
| 18/07 | 12:00 | EXCiclone extratropical | -- | 990 |
| 18/07 | 09:00 | EXCiclone extratropical | -- | 990 |
| 18/07 | 06:00 | EXCiclone extratropical | -- | 990 |
| 18/07 | 03:00 | EXCiclone extratropical | -- | 990 |
| 18/07 | 00:00 | EXCiclone extratropical | -- | 990 |
| 17/07 | 21:00 | EXCiclone extratropical | -- | 990 |
| 17/07 | 18:00 | EXCiclone extratropical | -- | 990 |
| 17/07 | 15:00 | EXCiclone extratropical | -- | 990 |
| 17/07 | 12:00 | EXCiclone extratropical | -- | 990 |
| 17/07 | 09:00 | EXCiclone extratropical | -- | 990 |
| 17/07 | 06:00 | EXCiclone extratropical | -- | 990 |
| 17/07 | 03:00 | EXCiclone extratropical | -- | 989 |
| 17/07 | 00:00 | EXCiclone extratropical | -- | 988 |
| 16/07 | 21:00 | EXCiclone extratropical | -- | 986 |
| 16/07 | 18:00 | EXCiclone extratropical | -- | 984 |
| 16/07 | 15:00 | TDDepressão tropical | -- | 985 |
| 16/07 | 12:00 | STSTempestade tropical severa | 95 | 985 |
| 16/07 | 09:00 | STSTempestade tropical severa | 95 | 980 |
| 16/07 | 06:00 | STSTempestade tropical severa | 65 | 997 |
| 16/07 | 03:00 | STSTempestade tropical severa | 85 | 991 |
| 16/07 | 01:00 | STSTempestade tropical severa | 95 | 986 |
| 16/07 | 00:00 | STSTempestade tropical severa | 100 | 984 |
| 15/07 | 21:00 | STSTempestade tropical severa | 95 | 988 |
| 15/07 | 18:00 | STSTempestade tropical severa | 85 | 991 |
| 15/07 | 15:00 | STSTempestade tropical severa | 95 | 988 |
| 15/07 | 12:00 | STSTempestade tropical severa | 100 | 984 |
| 15/07 | 09:00 | TTufão | 110 | 980 |
| 15/07 | 06:00 | TTufão | 120 | 976 |
| 15/07 | 03:00 | TTufão | 130 | 972 |
| 15/07 | 00:00 | TTufão | 140 | 967 |
| 14/07 | 21:00 | TTufão | 145 | 965 |
| 14/07 | 18:00 | TTufão | 150 | 963 |
| 14/07 | 15:00 | TTufão | 155 | 959 |
| 14/07 | 12:00 | TTufão | 165 | 954 |
| 14/07 | 09:00 | TTufão | 175 | 949 |
| 14/07 | 06:00 | STSupertufão | 185 | 944 |
| 14/07 | 03:00 | STSupertufão | 200 | 936 |
| 14/07 | 00:00 | STSupertufão | 215 | 927 |
| 13/07 | 21:00 | STSupertufão | 220 | 922 |
| 13/07 | 18:00 | STSupertufão | 230 | 916 |
| 13/07 | 15:00 | STSupertufão | 230 | 916 |
| 13/07 | 12:00 | STSupertufão | 230 | 916 |
| 13/07 | 09:00 | STSupertufão | 240 | 910 |
| 13/07 | 06:00 | STSupertufão | 250 | 904 |
| 13/07 | 03:00 | STSupertufão | 245 | 907 |
| 13/07 | 00:00 | STSupertufão | 240 | 910 |
| 12/07 | 21:00 | STSupertufão | 230 | 919 |
| 12/07 | 18:00 | STSupertufão | 215 | 927 |
| 12/07 | 15:00 | STSupertufão | 210 | 930 |
| 12/07 | 12:00 | STSupertufão | 205 | 933 |
| 12/07 | 09:00 | STSupertufão | 200 | 936 |
| 12/07 | 06:00 | STSupertufão | 195 | 938 |
| 12/07 | 03:00 | STSupertufão | 185 | 944 |
| 12/07 | 00:00 | TTufão | 175 | 949 |
| 11/07 | 21:00 | TTufão | 170 | 952 |
| 11/07 | 18:00 | TTufão | 165 | 954 |
| 11/07 | 15:00 | TTufão | 165 | 952 |
| 11/07 | 12:00 | TTufão | 165 | 949 |
| 11/07 | 09:00 | TTufão | 170 | 949 |
| 11/07 | 06:00 | TTufão | 175 | 949 |
| 11/07 | 03:00 | TTufão | 175 | 949 |
| 11/07 | 00:00 | TTufão | 175 | 949 |
| 10/07 | 21:00 | TTufão | 175 | 949 |
| 10/07 | 18:00 | TTufão | 175 | 949 |
| 10/07 | 15:00 | TTufão | 175 | 949 |
| 10/07 | 12:00 | STSTempestade tropical severa | 175 | 949 |
| 10/07 | 09:00 | TTufão | 175 | 949 |
| 10/07 | 06:00 | STSTempestade tropical severa | 175 | 949 |
| 10/07 | 03:00 | TTufão | 170 | 952 |
| 10/07 | 00:00 | STSTempestade tropical severa | 165 | 954 |
| 09/07 | 21:00 | TTufão | 155 | 961 |
| 09/07 | 18:00 | STSTempestade tropical severa | 140 | 967 |
| 09/07 | 15:00 | TTufão | 130 | 972 |
| 09/07 | 12:00 | STSTempestade tropical severa | 120 | 976 |
| 09/07 | 09:00 | TSTempestade tropical | 110 | 980 |
| 09/07 | 06:00 | STSTempestade tropical severa | 100 | 984 |
| 09/07 | 03:00 | TSTempestade tropical | 100 | 986 |
| 09/07 | 00:00 | STSTempestade tropical severa | 95 | 987 |
| 08/07 | 21:00 | TSTempestade tropical | 90 | 989 |
| 08/07 | 18:00 | TSTempestade tropical | 85 | 991 |
| 08/07 | 15:00 | TSTempestade tropical | 80 | 993 |
| 08/07 | 12:00 | TSTempestade tropical | 75 | 994 |
| 08/07 | 09:00 | TSTempestade tropical | 75 | 994 |
| 08/07 | 06:00 | TSTempestade tropical | 75 | 994 |
| 08/07 | 03:00 | TSTempestade tropical | 70 | 996 |
| 08/07 | 00:00 | TSTempestade tropical | 65 | 997 |
| 07/07 | 21:00 | TSTempestade tropical | 65 | 997 |
| 07/07 | 18:00 | TSTempestade tropical | 65 | 997 |
| 07/07 | 15:00 | TDDepressão tropical | 60 | 999 |
| 07/07 | 12:00 | TDDepressão tropical | 55 | 1000 |
| 07/07 | 09:00 | TDDepressão tropical | 55 | 1000 |
| 07/07 | 06:00 | TDDepressão tropical | 55 | 1000 |
| 07/07 | 03:00 | TDDepressão tropical | 50 | 1001 |
| 07/07 | 00:00 | TDDepressão tropical | 45 | 1002 |
| 06/07 | 21:00 | TDDepressão tropical | 45 | 1003 |
| 06/07 | 18:00 | TDDepressão tropical | 35 | 1004 |
| 06/07 | 15:00 | TDDepressão tropical | 35 | 1004 |
| 06/07 | 12:00 | TDDepressão tropical | 35 | 1004 |
| 06/07 | 09:00 | TDDepressão tropical | 35 | 1004 |
| 06/07 | 06:00 | TDDepressão tropical | 35 | 1004 |
| 06/07 | 03:00 | TDDepressão tropical | 35 | 1004 |
| 06/07 | 00:00 | TDDepressão tropical | 35 | 1004 |
| 05/07 | 21:00 | TDDepressão tropical | 35 | 1004 |
| 05/07 | 18:00 | TDDepressão tropical | 35 | 1004 |
| 05/07 | 15:00 | TDDepressão tropical | 35 | 1004 |
| 05/07 | 12:00 | TDDepressão tropical | 35 | 1004 |
Cronologia de localização
116 Registos de localizaçãoDetalhes do evento
Ligações das fontes
A localização, a extensão e o estado de cada evento podem ser atualizados em momentos diferentes consoante a fonte. Confirme decisões importantes junto das autoridades oficiais de emergência.
Os registos de eventos provêm da NASA EONET e são complementados por registos de deslizamentos de terra do USGS FDSN. As análises e previsões de tempestades podem utilizar a NOAA NHC ou o JTWC, com registos históricos ATCF da UCAR/NCAR quando disponíveis. As imagens de satélite provêm da NASA Worldview/GIBS (GOES e Himawari) ou da EUMETSAT Meteosat, consoante a cobertura do mapa.
Fontes: NASA EONET · USGS · NOAA NHC · JTWC · UCAR/NCAR ATCF · NASA Worldview/GIBS · EUMETSAT Meteosat · OpenStreetMap contributors